Terminal Aerodrome Forecast
Issued by NWS

Home | Current Version | Previous Version | Text Only | Print | Product List | Glossary On
Versions: 1 2 3 4 5 6 7 8 9 10 11 12 13 14 15 16 17 18 19 20 21 22 23 24 25 26 27 28 29 30 31
801
FTUS41 KBOX 041125
TAFHYA
TAF
KHYA 041125Z 0412/0512 06007KT P6SM SCT008 OVC035
     FM041400 06008KT P6SM VCSH SCT008 BKN010
     FM041700 06010G17KT 5SM BR VCSH OVC008
     FM042100 06010G19KT 3SM -RA BR OVC004
     FM050800 04010G24KT 5SM BR VCSH OVC004=

USA.gov is the U.S. government's official web portal to all federal, state and local government web resources and services.